KMHK

Manhattan Regional Airport

Manhattan, Kansas, USA
METAR KMHK 230952Z AUTO VRB03KT 9SM OVC006 01/M01 A3022 RMK AO2 SLP244 T00061006
Observed Flight Rules
Feb-23 @ 09:52 UTC (36 minutes ago) Instrument Flight Rules
Wind Visibility Clouds
Variable at 3 knots 9 miles
  • Overcast at 600' AGL
Temperatures Readings
Current 1°C / 34°F
Dewpoint -1°C / 30°F
Humidity 87%
Altimeter 30.22" Hg
Pressure 1024.4 hPa
Elevation 317
METAR KMHK 230952Z AUTO VRB03KT 9SM OVC006 01/M01 A3022 RMK AO2 SLP244 T00061006
Observed Flight Rules
Feb-23 @ 09:52 UTC
(36 minutes ago)
IFR
Wind Visibility
Variable at 3 knots 9 miles
Clouds
  • Overcast at 600' AGL
Temperature Dewpoint
1°C / 34°F -1°C / 30°F
Humidity Altimeter Pressure
87% 30.22" Hg 1024.4 hPa